LNG Dream — C6VO5 — position and weather

sailwx.info

Track history (hours):
 
Tides and Currents Weather Stations Pressure Air Temp Water Temp Dewpoint Dewpoint Depression Visibility Wind Speed Wind Dir Waves Ship Positions

LNG Dream

Last reported at 2015-Mar-08 04:33 UTC. Time now 2015-Mar-27 08:16 UTC.
Position N 33°58' E 134°56'.
Warning: this ship's position is 19 days out of date.

Length 289.6 m; beam 49 m.

Type: Ship (hazmat cat A). MMSI: 309065000.

Date/timePositionNaut miles runAvg speedWind from/ knotsBaromVisibWave heightAir tempDewpointWater temp
2015-Mar-08 04:33N 33°58' E 134°56'1615.5
2015-Mar-08 03:32N 34°13' E 134°58'1212.0
2015-Mar-08 02:33N 34°24' E 135°03'1414.2
2015-Mar-08 01:33N 34°33' E 135°17'6 5.7
2015-Mar-08 00:33N 34°33' E 135°24'0 0.0
2015-Mar-07 03:04N 34°33' E 135°24'0 0.0
2015-Mar-07 02:33N 34°33' E 135°24'0 0.0
2015-Mar-07 01:14N 34°33' E 135°24'0 0.4
2015-Mar-07 00:30N 34°33' E 135°24'7 7.4
2015-Mar-06 23:33N 34°33' E 135°16'1312.6
2015-Mar-06 22:33N 34°24' E 135°05'1312.9
2015-Mar-06 21:33N 34°12' E 134°59'9 9.2
2015-Mar-06 20:33N 34°02' E 134°59'1010.1
2015-Mar-06 19:33N 33°52' E 134°59'  
Track history (hours):
 
Tides and Currents Weather Stations Pressure Air Temp Water Temp Dewpoint Dewpoint Depression Visibility Wind Speed Wind Dir Waves Ship Positions

LNG Dream

Last reported at 2015-Mar-08 04:33 UTC. Time now 2015-Mar-27 08:16 UTC.
Position N 33°58' E 134°56'.
Warning: this ship's position is 19 days out of date.

Length 289.6 m; beam 49 m.

Type: Ship (hazmat cat A). MMSI: 309065000.

Date/timePositionNaut miles runAvg speedWind from/ knotsBaromVisibWave heightAir tempDewpointWater temp
2015-Mar-08 04:33N 33°58' E 134°56'1615.5
2015-Mar-08 03:32N 34°13' E 134°58'1212.0
2015-Mar-08 02:33N 34°24' E 135°03'1414.2
2015-Mar-08 01:33N 34°33' E 135°17'6 5.7
2015-Mar-08 00:33N 34°33' E 135°24'0 0.0
2015-Mar-07 03:04N 34°33' E 135°24'0 0.0
2015-Mar-07 02:33N 34°33' E 135°24'0 0.0
2015-Mar-07 01:14N 34°33' E 135°24'0 0.4
2015-Mar-07 00:30N 34°33' E 135°24'7 7.4
2015-Mar-06 23:33N 34°33' E 135°16'1312.6
2015-Mar-06 22:33N 34°24' E 135°05'1312.9
2015-Mar-06 21:33N 34°12' E 134°59'9 9.2
2015-Mar-06 20:33N 34°02' E 134°59'1010.1
2015-Mar-06 19:33N 33°52' E 134°59'  

Dump ship's entire track history